Time;durP1;ratioP1;P1;durP2;ratioP2;P2;SDS_P1;SDS_P2;PMS_P1;PMS_P2;Temp;Humidity;BMP_temperature;BMP_pressure;BME280_temperature;BME280_humidity;BME280_pressure;Samples;Min_cycle;Max_cycle;Signal;HPM_P1;HPM_P2
2021/01/09 00:01:40;;;;;;;41.58;13.30;;;;;;;0.73;90.41;99735.75;5095829;28;20501;-68
2021/01/09 00:04:10;;;;;;;40.22;14.77;;;;;;;0.78;90.83;99739.28;5095721;28;20044;-68
2021/01/09 00:06:40;;;;;;;41.25;14.18;;;;;;;0.77;90.28;99737.56;5095757;28;20367;-68
2021/01/09 00:09:08;;;;;;;35.58;12.05;;;;;;;0.46;90.34;99686.97;5095711;28;20386;-68
2021/01/09 00:11:36;;;;;;;36.35;13.48;;;;;;;0.67;90.41;99735.53;5095643;28;20070;-68
2021/01/09 00:14:03;;;;;;;38.50;13.55;;;;;;;0.51;90.50;99708.94;5095564;28;20111;-68
2021/01/09 00:16:31;;;;;;;46.72;14.77;;;;;;;0.74;90.37;99737.47;5095713;28;20048;-68
2021/01/09 00:18:59;;;;;;;47.28;15.48;;;;;;;0.70;90.52;99742.31;5095491;28;20072;-68
2021/01/09 00:21:35;;;;;;;42.70;15.60;;;;;;;0.67;90.04;99743.06;5095370;28;20058;-68
2021/01/09 00:24:05;;;;;;;39.85;13.70;;;;;;;0.63;90.51;99738.69;5095454;28;20044;-68
2021/01/09 00:26:33;;;;;;;46.90;15.68;;;;;;;0.59;90.23;99737.72;5095518;28;20516;-68
2021/01/09 00:29:02;;;;;;;48.95;15.63;;;;;;;0.41;90.79;99706.88;5095328;28;20044;-68
2021/01/09 00:31:29;;;;;;;48.85;15.85;;;;;;;0.61;90.33;99732.75;5095182;28;20051;-68
2021/01/09 00:33:59;;;;;;;44.00;14.07;;;;;;;0.57;90.51;99733.44;5095086;28;20366;-68
2021/01/09 00:36:26;;;;;;;43.40;14.45;;;;;;;0.54;90.61;99743.34;5093967;28;20123;-68
2021/01/09 00:38:55;;;;;;;43.83;14.20;;;;;;;0.52;90.69;99734.91;5095483;28;20051;-68
2021/01/09 00:41:27;;;;;;;41.53;13.95;;;;;;;0.51;90.28;99733.19;5095018;28;20506;-68
2021/01/09 00:43:58;;;;;;;41.38;14.70;;;;;;;0.47;90.42;99741.41;5095065;28;20132;-69
2021/01/09 00:46:26;;;;;;;40.93;12.40;;;;;;;0.48;90.71;99733.09;5094753;28;20050;-69
2021/01/09 00:48:54;;;;;;;45.85;15.38;;;;;;;0.43;90.59;99744.59;5094901;28;20123;-68
2021/01/09 00:51:21;;;;;;;51.88;15.43;;;;;;;0.47;90.61;99753.94;5094864;28;20397;-68
2021/01/09 00:53:51;;;;;;;55.55;16.65;;;;;;;0.53;90.41;99756.69;5095011;28;20072;-68
2021/01/09 00:56:20;;;;;;;47.85;16.60;;;;;;;0.58;90.34;99761.13;5094736;28;20041;-68
2021/01/09 00:58:48;;;;;;;46.17;15.50;;;;;;;0.59;90.63;99759.47;5094716;28;20051;-68
2021/01/09 01:01:16;;;;;;;45.83;16.40;;;;;;;0.59;90.73;99752.78;5094674;28;20497;-68
2021/01/09 01:03:46;;;;;;;;;;;;;;;0.60;90.43;99763.72;5095002;28;20524;-68
2021/01/09 01:06:13;;;;;;;47.50;14.82;;;;;;;0.62;90.71;99760.44;5094620;28;19926;-69
2021/01/09 01:08:41;;;;;;;44.22;14.15;;;;;;;0.64;90.24;99755.47;5094782;28;20036;-69
2021/01/09 01:11:10;;;;;;;57.45;16.25;;;;;;;0.61;90.81;99745.31;5094502;28;20044;-68
2021/01/09 01:13:40;;;;;;;49.47;15.57;;;;;;;0.65;91.06;99752.16;5094917;28;20058;-68
2021/01/09 01:16:07;;;;;;;52.55;16.35;;;;;;;0.65;90.21;99757.19;5094396;28;20130;-69
2021/01/09 01:18:35;;;;;;;57.58;17.58;;;;;;;0.72;90.64;99753.28;5094565;28;20044;-68
2021/01/09 01:21:05;;;;;;;49.22;15.80;;;;;;;0.75;90.49;99750.88;5094579;28;20036;-69
2021/01/09 01:23:33;;;;;;;51.38;16.40;;;;;;;0.74;90.81;99747.53;5094637;28;20374;-69
2021/01/09 01:26:02;;;;;;;47.80;15.52;;;;;;;0.78;90.45;99756.88;5094245;28;20044;-69
2021/01/09 01:28:30;;;;;;;49.22;16.33;;;;;;;0.79;90.73;99757.75;5094197;28;20428;-69
2021/01/09 01:30:58;;;;;;;46.42;15.65;;;;;;;0.77;90.68;99757.66;5094121;28;20072;-68
2021/01/09 01:33:26;;;;;;;53.15;16.33;;;;;;;0.80;90.22;99752.75;5094090;28;20033;-69
2021/01/09 01:35:54;;;;;;;46.75;14.98;;;;;;;0.82;90.43;99751.16;5094030;28;20050;-69
2021/01/09 01:38:22;;;;;;;48.38;15.82;;;;;;;0.84;90.33;99754.59;5094066;28;20032;-69
2021/01/09 01:40:50;;;;;;;49.70;16.02;;;;;;;0.86;90.55;99745.47;5094008;28;20123;-69
2021/01/09 01:43:17;;;;;;;44.35;14.02;;;;;;;0.61;90.42;99715.19;5093975;28;20048;-69
2021/01/09 01:45:45;;;;;;;42.10;14.85;;;;;;;0.79;89.77;99758.59;5093862;28;20055;-69
2021/01/09 01:48:15;;;;;;;49.53;14.98;;;;;;;0.78;90.17;99764.41;5093751;28;20379;-69
2021/01/09 01:50:43;;;;;;;44.90;14.68;;;;;;;0.82;89.95;99761.22;5093234;28;20044;-68
2021/01/09 01:53:11;;;;;;;41.35;14.82;;;;;;;0.83;90.31;99762.94;5094112;28;20127;-69
2021/01/09 01:55:41;;;;;;;43.88;15.38;;;;;;;0.56;90.37;99707.47;5093723;28;20047;-69
2021/01/09 01:58:09;;;;;;;45.95;13.70;;;;;;;0.72;90.42;99740.72;5093776;28;20059;-69
2021/01/09 02:00:37;;;;;;;39.08;14.35;;;;;;;0.84;89.93;99758.78;5094021;28;20036;-68
2021/01/09 02:03:05;;;;;;;47.20;14.68;;;;;;;0.82;90.23;99760.34;5093683;28;20036;-68
2021/01/09 02:05:37;;;;;;;45.22;14.80;;;;;;;0.77;89.57;99760.19;5093776;28;20040;-69
2021/01/09 02:08:10;;;;;;;45.70;16.75;;;;;;;0.78;89.76;99764.41;5093693;28;20382;-68
2021/01/09 02:10:41;;;;;;;46.78;15.65;;;;;;;0.83;89.65;99767.97;5093728;28;20128;-68
2021/01/09 02:13:17;;;;;;;45.97;14.95;;;;;;;0.82;89.89;99762.84;5093591;28;20524;-68
2021/01/09 02:15:47;;;;;;;48.75;14.60;;;;;;;0.70;89.87;99759.91;5093101;28;20055;-68
2021/01/09 02:18:17;;;;;;;46.15;15.05;;;;;;;0.71;89.99;99767.47;5093472;28;20137;-68
2021/01/09 02:20:50;;;;;;;42.80;14.35;;;;;;;0.70;89.71;99763.25;5093907;28;20052;-68
2021/01/09 02:23:25;;;;;;;47.53;15.85;;;;;;;0.67;89.61;99761.47;5093870;28;20043;-67
2021/01/09 02:25:52;;;;;;;49.10;16.65;;;;;;;0.42;89.57;99733.69;5093565;28;20070;-67
2021/01/09 02:28:20;;;;;;;46.60;15.52;;;;;;;0.50;89.67;99734.00;5093420;28;20048;-68
2021/01/09 02:30:49;;;;;;;46.17;16.83;;;;;;;0.74;90.22;99769.25;5093790;28;20131;-67
2021/01/09 02:33:20;;;;;;;49.30;16.55;;;;;;;0.78;89.65;99761.91;5093779;28;20044;-67
2021/01/09 02:35:51;;;;;;;46.47;15.80;;;;;;;0.78;89.84;99759.38;5093391;28;20048;-68
2021/01/09 02:38:20;;;;;;;42.60;16.60;;;;;;;0.78;89.38;99764.41;5092531;28;20524;-67
2021/01/09 02:40:47;;;;;;;43.08;13.85;;;;;;;0.76;89.78;99758.47;5093141;28;20044;-70
2021/01/09 02:43:15;;;;;;;42.33;14.32;;;;;;;0.75;89.33;99759.25;5093356;28;20042;-68
2021/01/09 02:45:43;;;;;;;47.72;15.63;;;;;;;0.45;89.42;99716.25;5082584;28;20119;-68
2021/01/09 02:48:12;;;;;;;41.93;15.63;;;;;;;0.74;89.39;99762.59;5087010;28;20409;-68
2021/01/09 02:50:40;;;;;;;43.30;15.82;;;;;;;0.76;89.42;99760.13;5084041;28;20128;-68
2021/01/09 02:53:07;;;;;;;42.97;15.23;;;;;;;0.76;89.31;99765.16;5088135;28;20045;-68
2021/01/09 02:55:36;;;;;;;43.17;15.18;;;;;;;0.48;89.59;99723.88;5085782;28;20478;-69
2021/01/09 02:58:04;;;;;;;44.83;15.93;;;;;;;0.71;89.04;99766.63;5085018;28;20036;-68
2021/01/09 03:00:32;;;;;;;37.85;14.57;;;;;;;0.72;89.50;99763.31;5088099;28;20060;-69
2021/01/09 03:03:00;;;;;;;47.50;16.35;;;;;;;0.72;89.14;99769.19;5090939;28;20043;-68
2021/01/09 03:05:28;;;;;;;40.25;14.45;;;;;;;0.68;89.05;99759.81;5089306;28;20489;-68
2021/01/09 03:07:56;;;;;;;47.50;16.30;;;;;;;0.75;89.17;99774.31;5079145;28;20090;-68
2021/01/09 03:10:24;;;;;;;42.63;15.77;;;;;;;0.55;89.13;99725.00;5076519;28;20051;-68
2021/01/09 03:12:55;;;;;;;48.17;16.23;;;;;;;0.83;89.53;99772.13;5076861;28;20135;-68
2021/01/09 03:15:23;;;;;;;49.45;16.67;;;;;;;0.83;89.02;99767.97;5078419;28;20037;-69
2021/01/09 03:17:52;;;;;;;41.63;14.48;;;;;;;0.83;89.29;99764.59;5096606;28;20448;-68
2021/01/09 03:20:20;;;;;;;40.40;14.73;;;;;;;0.78;89.20;99764.41;5096665;28;20093;-67
2021/01/09 03:22:48;;;;;;;39.20;14.57;;;;;;;0.72;88.51;99769.19;5096552;28;20048;-67
2021/01/09 03:25:15;;;;;;;45.45;16.65;;;;;;;0.44;88.91;99741.28;5096555;28;20044;-69
2021/01/09 03:27:43;;;;;;;43.35;15.18;;;;;;;0.61;89.34;99765.41;5096765;28;20044;-67
2021/01/09 03:30:13;;;;;;;42.15;13.52;;;;;;;0.60;89.02;99768.72;5096493;28;20497;-68
2021/01/09 03:32:40;;;;;;;44.40;14.63;;;;;;;0.63;88.77;99769.69;5096584;28;20048;-68
2021/01/09 03:35:09;;;;;;;40.60;13.82;;;;;;;0.62;88.67;99767.13;5096296;28;20440;-67
2021/01/09 03:37:36;;;;;;;40.00;14.20;;;;;;;0.59;89.10;99761.97;5096176;28;20127;-67
2021/01/09 03:40:06;;;;;;;44.80;14.90;;;;;;;0.57;89.07;99764.44;5096273;28;20063;-68
2021/01/09 03:42:34;;;;;;;38.45;13.55;;;;;;;0.57;88.63;99758.56;5096197;28;20048;-68
2021/01/09 03:45:01;;;;;;;40.08;15.18;;;;;;;0.57;89.03;99764.44;5096379;28;20073;-67
2021/01/09 03:47:30;;;;;;;48.20;16.95;;;;;;;0.58;89.05;99762.75;5096314;28;20052;-68
2021/01/09 03:49:58;;;;;;;42.83;15.37;;;;;;;0.57;89.01;99769.47;5096034;28;20135;-67
2021/01/09 03:52:26;;;;;;;46.25;14.18;;;;;;;0.60;88.95;99773.75;5096037;28;20436;-67
2021/01/09 03:54:54;;;;;;;45.03;16.10;;;;;;;0.46;89.04;99762.25;5095873;28;20497;-67
2021/01/09 03:57:22;;;;;;;45.10;15.60;;;;;;;0.56;88.79;99774.41;5095998;28;20513;-67
2021/01/09 03:59:49;;;;;;;50.85;18.13;;;;;;;0.51;88.97;99768.34;5095874;28;20425;-67
2021/01/09 04:02:17;;;;;;;42.47;15.68;;;;;;;0.46;89.02;99762.25;5080216;28;20052;-68
2021/01/09 04:04:46;;;;;;;42.95;15.35;;;;;;;0.42;88.95;99773.84;5075527;28;20040;-67
2021/01/09 04:07:13;;;;;;;40.25;13.93;;;;;;;0.44;88.78;99772.25;5074255;28;20037;-67
2021/01/09 04:09:42;;;;;;;43.97;16.13;;;;;;;0.44;89.11;99776.41;5075413;28;20040;-67
2021/01/09 04:12:10;;;;;;;42.50;15.00;;;;;;;0.47;88.96;99779.06;5074821;28;20136;-67
2021/01/09 04:14:37;;;;;;;44.30;16.45;;;;;;;0.50;88.69;99774.16;5074130;28;20506;-68
2021/01/09 04:17:05;;;;;;;46.85;15.32;;;;;;;0.47;89.00;99777.41;5075185;28;20036;-68
2021/01/09 04:19:33;;;;;;;44.15;15.57;;;;;;;0.48;89.22;99783.28;5075265;28;20087;-68
2021/01/09 04:22:02;;;;;;;47.13;16.20;;;;;;;-0.57;88.65;99595.00;5075195;28;20486;-67
2021/01/09 04:24:30;;;;;;;47.72;15.90;;;;;;;0.55;88.80;99780.22;5075228;28;20398;-68
2021/01/09 04:27:00;;;;;;;52.17;17.65;;;;;;;0.54;89.34;99781.00;5075379;28;20052;-68
2021/01/09 04:29:29;;;;;;;46.17;16.67;;;;;;;0.55;88.86;99780.22;5075196;28;20087;-67
2021/01/09 04:31:57;;;;;;;43.45;15.68;;;;;;;0.55;89.04;99790.28;5074976;28;20044;-67
2021/01/09 04:34:26;;;;;;;46.72;16.50;;;;;;;0.51;88.99;99783.41;5074906;28;20037;-67
2021/01/09 04:36:54;;;;;;;42.83;15.73;;;;;;;0.56;88.68;99792.84;5074910;28;20124;-68
2021/01/09 04:39:23;;;;;;;42.33;14.00;;;;;;;0.51;88.98;99804.34;5075146;28;20041;-67
2021/01/09 04:41:51;;;;;;;48.23;15.87;;;;;;;0.52;89.21;99800.19;5074887;28;20071;-67
2021/01/09 04:44:19;;;;;;;39.85;14.65;;;;;;;0.53;88.93;99811.94;5074729;28;20055;-67
2021/01/09 04:46:50;;;;;;;50.88;16.70;;;;;;;0.56;88.70;99812.91;5074508;28;20055;-68
2021/01/09 04:49:19;;;;;;;42.67;14.68;;;;;;;0.61;89.09;99820.63;5074732;28;20469;-67
2021/01/09 04:51:48;;;;;;;43.80;15.98;;;;;;;0.64;88.82;99823.28;5074633;28;20044;-67
2021/01/09 04:54:17;;;;;;;41.88;15.35;;;;;;;0.64;88.98;99811.59;5074504;28;20456;-67
2021/01/09 04:56:47;;;;;;;46.75;16.27;;;;;;;0.48;88.86;99790.81;5074546;28;20466;-68
2021/01/09 04:59:17;;;;;;;46.15;16.13;;;;;;;0.67;88.97;99830.94;5075090;28;20060;-67
2021/01/09 05:01:47;;;;;;;49.63;16.17;;;;;;;0.62;88.71;99817.34;5074691;28;20067;-68
2021/01/09 05:04:16;;;;;;;42.90;16.05;;;;;;;0.71;88.48;99822.72;5074437;28;20059;-68
2021/01/09 05:06:46;;;;;;;44.13;15.13;;;;;;;0.49;88.66;99800.06;5074654;28;20045;-68
2021/01/09 05:09:14;;;;;;;44.20;15.52;;;;;;;0.68;88.29;99817.56;5074263;28;20123;-68
2021/01/09 05:11:46;;;;;;;45.05;15.95;;;;;;;0.70;88.68;99817.66;5074618;28;20051;-68
2021/01/09 05:14:16;;;;;;;38.20;15.15;;;;;;;0.74;88.22;99827.03;5074166;28;20080;-68
2021/01/09 05:16:44;;;;;;;40.72;15.23;;;;;;;0.74;88.89;99827.03;5074180;28;20045;-67
2021/01/09 05:19:17;;;;;;;42.40;15.13;;;;;;;0.72;88.61;99833.63;5074162;28;20053;-67
2021/01/09 05:21:46;;;;;;;42.35;15.38;;;;;;;0.67;88.45;99835.97;5074280;28;20064;-67
2021/01/09 05:24:17;;;;;;;43.03;15.45;;;;;;;0.67;88.48;99838.47;5073277;28;20044;-67
2021/01/09 05:26:46;;;;;;;42.80;16.50;;;;;;;0.65;88.34;99842.56;5074014;28;20052;-67
2021/01/09 05:29:16;;;;;;;40.95;15.70;;;;;;;0.43;88.25;99809.84;5073958;28;20082;-67
2021/01/09 05:31:44;;;;;;;43.67;14.27;;;;;;;0.64;88.60;99840.84;5073878;28;20051;-67
2021/01/09 05:34:12;;;;;;;39.40;14.98;;;;;;;0.65;88.87;99842.56;5073790;28;20098;-67
2021/01/09 05:36:40;;;;;;;44.65;14.90;;;;;;;0.68;88.61;99845.19;5074042;28;20037;-67
2021/01/09 05:39:08;;;;;;;40.17;15.52;;;;;;;0.72;88.45;99838.66;5073847;28;20403;-67
2021/01/09 05:41:41;;;;;;;50.70;16.77;;;;;;;0.74;88.34;99842.94;5073720;28;20045;-67
2021/01/09 05:44:10;;;;;;;46.97;14.70;;;;;;;0.65;88.49;99843.41;5073851;28;20045;-68
2021/01/09 05:46:40;;;;;;;44.70;14.88;;;;;;;0.58;87.92;99845.63;5074262;28;20048;-68
2021/01/09 05:49:09;;;;;;;43.25;15.20;;;;;;;0.62;88.24;99852.50;5073778;28;20049;-67
2021/01/09 05:51:39;;;;;;;48.60;17.45;;;;;;;0.52;88.30;99843.72;5073682;28;20044;-67
2021/01/09 05:54:08;;;;;;;43.58;15.63;;;;;;;0.65;87.88;99867.66;5073701;28;20555;-67
2021/01/09 05:56:39;;;;;;;46.38;16.08;;;;;;;0.48;87.93;99828.47;5073679;28;20045;-67
2021/01/09 05:59:07;;;;;;;41.97;15.43;;;;;;;0.65;88.00;99862.63;5074201;28;20052;-67
2021/01/09 06:01:36;;;;;;;39.88;14.07;;;;;;;0.52;87.92;99845.38;5073877;28;20037;-67
2021/01/09 06:04:06;;;;;;;40.70;15.32;;;;;;;0.57;88.28;99864.00;5073527;28;20044;-67
2021/01/09 06:06:45;;;;;;;41.38;13.90;;;;;;;0.55;88.19;99868.09;5073563;28;20075;-67
2021/01/09 06:09:21;;;;;;;45.08;15.98;;;;;;;0.60;88.04;99866.66;5073500;28;20140;-67
2021/01/09 06:11:54;;;;;;;43.60;15.50;;;;;;;0.44;87.72;99847.56;5074010;28;20075;-68
2021/01/09 06:14:27;;;;;;;40.10;14.13;;;;;;;0.60;87.84;99886.72;5073712;28;20079;-67
2021/01/09 06:16:58;;;;;;;40.75;14.93;;;;;;;0.63;87.82;99889.34;5073435;28;20049;-67
2021/01/09 06:19:31;;;;;;;43.83;15.95;;;;;;;0.37;88.21;99830.53;5073414;28;20413;-67
2021/01/09 06:22:01;;;;;;;44.35;15.25;;;;;;;0.61;87.82;99880.91;5073373;28;20048;-67
2021/01/09 06:24:30;;;;;;;42.17;15.43;;;;;;;0.70;87.74;99890.50;5073223;28;20072;-67
2021/01/09 06:27:00;;;;;;;42.95;16.30;;;;;;;0.65;87.73;99887.75;5073390;28;20044;-67
2021/01/09 06:29:31;;;;;;;43.67;15.13;;;;;;;0.61;87.88;99895.97;5073326;28;20040;-67
2021/01/09 06:32:04;;;;;;;39.60;15.52;;;;;;;0.63;87.83;99894.38;5073549;28;20452;-68
2021/01/09 06:34:32;;;;;;;42.53;16.08;;;;;;;0.64;88.05;99896.97;5073484;28;20121;-68
2021/01/09 06:37:02;;;;;;;38.35;14.70;;;;;;;0.64;87.63;99896.09;5076591;28;20048;-68
2021/01/09 06:39:34;;;;;;;45.15;14.70;;;;;;;0.49;87.91;99878.75;5077128;28;20132;-67
2021/01/09 06:42:05;;;;;;;39.08;14.93;;;;;;;0.56;87.65;99894.91;5077178;28;20105;-67
2021/01/09 06:44:33;;;;;;;41.13;14.43;;;;;;;0.55;87.97;99890.69;5077060;28;20041;-67
2021/01/09 06:47:02;;;;;;;41.13;14.85;;;;;;;0.58;87.32;99896.69;5076847;28;20053;-68
2021/01/09 06:49:30;;;;;;;49.45;17.48;;;;;;;0.56;87.28;99892.41;5075903;28;20063;-67
2021/01/09 06:52:02;;;;;;;46.38;16.27;;;;;;;0.55;87.47;99894.03;5077333;28;20048;-67
2021/01/09 06:54:44;;;;;;;43.33;15.90;;;;;;;0.54;87.58;99901.53;5076804;28;20065;-68
2021/01/09 06:57:17;;;;;;;37.88;14.65;;;;;;;0.59;87.59;99897.56;5077145;28;20059;-67
2021/01/09 06:59:46;;;;;;;43.33;16.60;;;;;;;0.58;87.44;99895.81;5076842;28;20102;-68
2021/01/09 07:02:20;;;;;;;43.15;15.60;;;;;;;0.58;87.71;99905.88;5076537;28;20049;-68
2021/01/09 07:04:55;;;;;;;41.20;16.30;;;;;;;0.57;87.69;99905.03;5076784;28;20128;-68
2021/01/09 07:07:44;;;;;;;44.80;16.15;;;;;;;0.57;87.49;99905.03;5076948;28;20154;-68
2021/01/09 07:10:18;;;;;;;49.40;15.93;;;;;;;0.37;87.20;99869.81;5073638;28;20052;-67
2021/01/09 07:12:53;;;;;;;49.17;16.05;;;;;;;0.56;87.37;99907.47;5076875;28;20048;-68
2021/01/09 07:15:22;;;;;;;38.58;15.15;;;;;;;0.58;87.25;99915.91;5076465;28;20478;-68
2021/01/09 07:17:56;;;;;;;43.28;16.42;;;;;;;0.50;87.43;99899.69;5076661;28;20052;-68
2021/01/09 07:20:29;;;;;;;47.58;16.20;;;;;;;0.60;87.56;99916.88;5076490;28;20053;-67
2021/01/09 07:23:02;;;;;;;42.95;16.52;;;;;;;0.62;87.34;99917.78;5076395;28;20052;-68
2021/01/09 07:25:35;;;;;;;40.25;14.68;;;;;;;0.67;87.41;99916.31;5076651;28;20127;-69
2021/01/09 07:28:10;;;;;;;46.22;17.15;;;;;;;0.74;87.30;99924.97;5076313;28;20044;-68
2021/01/09 07:30:38;;;;;;;50.10;17.40;;;;;;;0.73;87.74;99931.63;5076344;28;20056;-68
2021/01/09 07:33:09;;;;;;;41.90;15.07;;;;;;;0.75;87.52;99930.03;5076108;28;20079;-68
2021/01/09 07:35:42;;;;;;;46.33;16.65;;;;;;;0.79;87.33;99931.03;5076128;28;20131;-68
2021/01/09 07:38:12;;;;;;;45.13;17.65;;;;;;;0.77;86.73;99935.97;5076140;28;20052;-68
2021/01/09 07:40:54;;;;;;;42.83;15.82;;;;;;;0.77;86.83;99938.50;5076033;28;20241;-68
2021/01/09 07:43:33;;;;;;;39.55;14.85;;;;;;;0.80;86.98;99937.75;5076056;28;20048;-68
2021/01/09 07:46:21;;;;;;;42.97;15.30;;;;;;;0.87;87.17;99940.59;5076019;28;20044;-68
2021/01/09 07:48:52;;;;;;;38.17;14.27;;;;;;;0.92;86.77;99944.16;5075369;28;20079;-68
2021/01/09 07:51:20;;;;;;;;;;;;;;;0.97;87.30;99952.75;5076595;28;20049;-68
2021/01/09 07:53:51;;;;;;;37.53;13.85;;;;;;;1.07;86.39;99959.00;5075883;28;19966;-69
2021/01/09 07:56:36;;;;;;;40.60;15.73;;;;;;;1.11;86.70;99961.72;5074492;28;20045;-68
2021/01/09 07:59:07;;;;;;;40.70;15.13;;;;;;;1.15;86.98;99958.53;5075798;28;20484;-69
2021/01/09 08:01:41;;;;;;;40.10;15.57;;;;;;;1.07;86.45;99944.81;5075697;28;20102;-68
2021/01/09 08:04:11;;;;;;;39.13;15.68;;;;;;;0.97;85.98;99959.44;5075619;28;20059;-69
2021/01/09 08:06:40;;;;;;;44.30;16.95;;;;;;;0.99;85.98;99966.22;5075607;28;20049;-68
2021/01/09 08:09:10;;;;;;;41.60;16.85;;;;;;;1.01;86.00;99962.13;5075484;28;20043;-68
2021/01/09 08:11:42;;;;;;;35.95;15.32;;;;;;;0.54;85.80;99894.84;5075439;28;20070;-68
2021/01/09 08:14:13;;;;;;;46.15;17.10;;;;;;;0.88;86.04;99967.44;5075512;28;20461;-68
2021/01/09 08:16:41;;;;;;;38.72;16.17;;;;;;;0.87;85.46;99965.72;5075238;28;20045;-69
2021/01/09 08:19:18;;;;;;;38.10;14.23;;;;;;;0.88;85.79;99977.50;5075728;28;20048;-68
2021/01/09 08:21:47;;;;;;;38.45;14.57;;;;;;;0.94;85.55;99976.88;5075616;28;20486;-68
2021/01/09 08:24:22;;;;;;;45.15;17.25;;;;;;;1.03;85.57;99974.78;5075309;28;20049;-68
2021/01/09 08:26:50;;;;;;;38.17;15.45;;;;;;;1.13;85.59;99987.75;5075161;28;20105;-68
2021/01/09 08:29:18;;;;;;;39.35;15.95;;;;;;;1.27;85.56;99988.34;5075134;28;20057;-69
2021/01/09 08:31:48;;;;;;;39.33;16.37;;;;;;;1.43;84.91;99979.75;5075023;28;20047;-69
2021/01/09 08:34:17;;;;;;;35.40;14.98;;;;;;;1.57;84.69;99992.06;5075066;28;20501;-68
2021/01/09 08:36:45;;;;;;;38.13;15.00;;;;;;;1.51;84.78;99999.41;5074862;28;20040;-68
2021/01/09 08:39:13;;;;;;;35.63;13.93;;;;;;;1.50;84.29;99996.78;5074908;28;20439;-68
2021/01/09 08:41:42;;;;;;;40.25;16.10;;;;;;;1.53;83.90;99996.94;5074756;28;20094;-68
2021/01/09 08:44:11;;;;;;;36.78;14.45;;;;;;;1.53;83.72;99997.78;5075037;28;20051;-68
2021/01/09 08:46:40;;;;;;;42.30;16.00;;;;;;;1.21;83.80;99946.22;5085005;28;20036;-69
2021/01/09 08:49:25;;;;;;;34.85;13.55;;;;;;;1.38;83.70;99991.28;5094852;28;20044;-68
2021/01/09 08:52:04;;;;;;;38.00;14.73;;;;;;;1.39;83.37;99998.03;5095146;28;20055;-68
2021/01/09 08:54:37;;;;;;;38.13;14.05;;;;;;;1.31;83.26;100001.09;5094884;28;20040;-68
2021/01/09 08:57:09;;;;;;;40.90;15.32;;;;;;;1.20;83.48;99987.22;5095150;28;20071;-69
2021/01/09 08:59:38;;;;;;;30.73;13.65;;;;;;;1.12;83.74;99996.13;5094595;28;20051;-68
2021/01/09 09:02:10;;;;;;;36.90;13.82;;;;;;;1.15;84.36;99988.69;5094716;28;20501;-68
2021/01/09 09:04:42;;;;;;;42.42;15.13;;;;;;;1.21;84.10;99998.13;5093483;28;20048;-68
2021/01/09 09:07:10;;;;;;;38.60;14.77;;;;;;;1.19;84.22;99995.56;5094609;28;20044;-68
2021/01/09 09:09:48;;;;;;;41.70;14.15;;;;;;;1.27;83.67;100003.44;5094668;28;20043;-67
2021/01/09 09:12:25;;;;;;;40.97;15.43;;;;;;;1.32;83.80;100012.00;5094625;28;20052;-69
2021/01/09 09:14:57;;;;;;;40.88;16.05;;;;;;;1.17;83.98;99969.53;5094402;28;20123;-68
2021/01/09 09:17:25;;;;;;;36.65;14.90;;;;;;;1.44;84.00;100016.69;5094484;28;20075;-70
2021/01/09 09:19:55;;;;;;;43.90;16.67;;;;;;;1.44;83.63;100011.66;5094194;28;20044;-69
2021/01/09 09:22:30;;;;;;;40.22;14.63;;;;;;;1.40;83.81;100014.81;5093625;28;20052;-69
2021/01/09 09:24:58;;;;;;;38.37;15.13;;;;;;;1.22;84.12;99980.59;5094148;28;20058;-69
2021/01/09 09:27:28;;;;;;;38.97;15.98;;;;;;;1.37;84.03;100017.22;5094217;28;20127;-69
2021/01/09 09:30:09;;;;;;;37.97;14.85;;;;;;;1.33;84.43;100014.59;5094308;28;20079;-69
2021/01/09 09:32:38;;;;;;;38.30;14.85;;;;;;;1.31;83.82;100016.19;5094103;28;20109;-69
2021/01/09 09:35:19;;;;;;;39.80;15.63;;;;;;;1.32;84.32;100012.00;5094372;28;20496;-69
2021/01/09 09:37:48;;;;;;;38.20;14.02;;;;;;;1.41;84.25;100006.50;5094221;28;20131;-68
2021/01/09 09:40:25;;;;;;;36.17;15.43;;;;;;;1.44;84.29;100009.13;5094117;28;20059;-69
2021/01/09 09:42:55;;;;;;;38.60;14.85;;;;;;;1.57;83.75;100008.81;5094083;28;20054;-69
2021/01/09 09:45:24;;;;;;;35.25;13.23;;;;;;;1.53;83.61;99996.94;5094032;28;20466;-69
2021/01/09 09:47:52;;;;;;;36.38;14.55;;;;;;;1.44;83.72;99996.56;5093679;28;20405;-69
2021/01/09 09:50:21;;;;;;;30.98;12.27;;;;;;;1.38;83.41;99981.22;5094208;28;20048;-69
2021/01/09 09:52:59;;;;;;;34.17;14.10;;;;;;;1.48;83.40;99998.41;5093920;28;20113;-69
2021/01/09 09:55:31;;;;;;;33.10;14.02;;;;;;;1.55;83.50;99985.28;5094075;28;20084;-69
2021/01/09 09:58:06;;;;;;;37.20;14.07;;;;;;;1.59;83.14;99992.13;5093848;28;20097;-69
2021/01/09 10:00:41;;;;;;;32.35;13.60;;;;;;;1.76;84.01;99991.13;5093809;28;20040;-69
2021/01/09 10:03:08;;;;;;;35.13;13.85;;;;;;;1.81;83.62;99982.13;5093786;28;20489;-69
2021/01/09 10:05:38;;;;;;;32.65;14.68;;;;;;;1.81;83.03;99985.50;5094024;28;20055;-69
2021/01/09 10:08:10;;;;;;;37.92;15.27;;;;;;;2.11;82.96;99978.25;5093730;28;20051;-68
2021/01/09 10:10:41;;;;;;;35.13;14.38;;;;;;;2.31;82.82;99969.75;5093191;28;20447;-69
2021/01/09 10:13:09;;;;;;;34.85;14.18;;;;;;;2.34;82.10;99967.38;5093578;28;20501;-68
2021/01/09 10:15:40;;;;;;;39.00;14.88;;;;;;;2.16;82.88;99958.28;5093643;28;20056;-68
2021/01/09 10:18:10;;;;;;;41.28;15.93;;;;;;;2.05;82.15;99965.44;5093571;28;20060;-69
2021/01/09 10:20:40;;;;;;;41.15;16.38;;;;;;;2.01;82.85;99956.06;5093575;28;20588;-69
2021/01/09 10:23:11;;;;;;;34.88;14.65;;;;;;;1.76;82.98;99960.94;5093578;28;20139;-68
2021/01/09 10:25:39;;;;;;;36.22;15.65;;;;;;;1.68;82.97;99952.28;5093554;28;20050;-68
2021/01/09 10:28:08;;;;;;;35.67;14.52;;;;;;;1.62;82.29;99957.91;5093562;28;20497;-69
2021/01/09 10:30:36;;;;;;;32.63;13.13;;;;;;;1.59;83.01;99954.41;5093499;28;20040;-69
2021/01/09 10:33:05;;;;;;;48.47;17.83;;;;;;;1.64;82.86;99955.44;5093460;28;20123;-68
2021/01/09 10:35:33;;;;;;;37.10;14.68;;;;;;;1.63;83.18;99948.72;5093267;28;20044;-68
2021/01/09 10:38:03;;;;;;;27.55;11.73;;;;;;;1.70;83.21;99955.69;5093445;28;20501;-69
2021/01/09 10:40:30;;;;;;;32.37;14.10;;;;;;;1.74;82.62;99952.50;5093697;28;20134;-69
2021/01/09 10:42:58;;;;;;;36.00;15.52;;;;;;;1.70;82.77;99950.66;5093393;28;20665;-68
2021/01/09 10:45:27;;;;;;;36.07;15.40;;;;;;;1.69;83.24;99947.28;5093314;28;20048;-69
2021/01/09 10:47:55;;;;;;;34.63;13.73;;;;;;;1.72;82.86;99941.50;5093104;28;20144;-69
2021/01/09 10:50:23;;;;;;;33.42;15.02;;;;;;;1.76;83.36;99940.81;5093233;28;20416;-68
2021/01/09 10:52:56;;;;;;;33.70;13.93;;;;;;;1.71;82.50;99944.81;5093362;28;20048;-68
2021/01/09 10:55:28;;;;;;;37.22;15.02;;;;;;;1.85;83.38;99941.16;5092059;28;20053;-69
2021/01/09 10:57:58;;;;;;;40.97;14.65;;;;;;;1.98;83.23;99929.13;5093324;28;20401;-69
2021/01/09 11:00:26;;;;;;;32.40;12.55;;;;;;;1.96;82.48;99924.81;5093146;28;20432;-69
2021/01/09 11:02:54;;;;;;;38.97;15.02;;;;;;;2.03;82.81;99922.59;5093165;28;20047;-69
2021/01/09 11:05:21;;;;;;;35.83;15.00;;;;;;;2.17;82.04;99924.75;5093163;28;20037;-69
2021/01/09 11:07:52;;;;;;;35.63;15.43;;;;;;;2.15;81.95;99927.22;5093190;28;20048;-69
2021/01/09 11:10:20;;;;;;;33.25;15.65;;;;;;;2.13;81.77;99926.31;5091941;28;20042;-69
2021/01/09 11:13:05;;;;;;;35.47;13.80;;;;;;;1.98;82.00;99919.06;5093160;28;20051;-69
2021/01/09 11:15:33;;;;;;;33.42;13.25;;;;;;;1.97;82.18;99921.50;5092996;28;20044;-68
2021/01/09 11:18:01;;;;;;;35.45;14.63;;;;;;;1.82;81.72;99920.94;5093023;28;20570;-68
2021/01/09 11:20:31;;;;;;;28.08;12.48;;;;;;;1.79;82.25;99925.84;5093096;28;20051;-68
2021/01/09 11:22:59;;;;;;;30.20;13.43;;;;;;;1.77;82.35;99922.44;5094654;28;20048;-68
2021/01/09 11:25:27;;;;;;;32.53;13.48;;;;;;;1.79;82.69;99920.81;5096655;28;20052;-69
2021/01/09 11:27:55;;;;;;;35.83;14.13;;;;;;;1.96;82.01;99912.25;5096519;28;20038;-68
2021/01/09 11:30:24;;;;;;;33.10;14.68;;;;;;;1.99;82.06;99910.69;5096538;28;20493;-69
2021/01/09 11:32:52;;;;;;;25.03;10.20;;;;;;;2.11;82.23;99917.84;5096465;28;20051;-69
2021/01/09 11:35:20;;;;;;;30.35;14.23;;;;;;;2.11;82.08;99915.34;5096881;28;20040;-69
2021/01/09 11:37:48;;;;;;;30.27;12.00;;;;;;;2.05;81.98;99915.09;5096349;28;20048;-69